createdAt,value
2016-02-04T00:00:49.779Z,0
2016-02-04T00:01:49.782Z,0
2016-02-04T00:02:49.753Z,0
2016-02-04T00:03:49.756Z,0
2016-02-04T00:05:03.181Z,0
2016-02-04T00:05:54.089Z,0
2016-02-04T00:06:56.561Z,0
2016-02-04T00:07:49.781Z,0
2016-02-04T00:08:49.769Z,0
2016-02-04T00:09:49.615Z,0
2016-02-04T00:11:01.009Z,0
2016-02-04T00:11:49.714Z,0
2016-02-04T00:12:49.752Z,0
2016-02-04T00:13:49.708Z,0
2016-02-04T00:14:49.726Z,0
2016-02-04T00:15:49.745Z,0
2016-02-04T00:16:50.106Z,0
2016-02-04T00:17:50.126Z,0
2016-02-04T00:19:01.675Z,0
2016-02-04T00:19:49.865Z,0
2016-02-04T00:20:49.789Z,0
2016-02-04T00:21:49.855Z,0
2016-02-04T00:22:56.811Z,0
2016-02-04T00:23:49.689Z,0
2016-02-04T00:24:56.817Z,0
2016-02-04T00:25:56.912Z,0
2016-02-04T00:26:49.665Z,0
2016-02-04T00:27:49.668Z,0
2016-02-04T00:28:49.671Z,0
2016-02-04T00:30:01.673Z,0
2016-02-04T00:30:49.676Z,0
2016-02-04T00:31:56.836Z,0
2016-02-04T00:33:04.120Z,0
2016-02-04T00:33:54.404Z,0
2016-02-04T00:34:49.673Z,0
2016-02-04T00:35:49.659Z,0
2016-02-04T00:36:49.678Z,0
2016-02-04T00:37:49.665Z,0
2016-02-04T00:38:49.651Z,0
2016-02-04T00:39:49.623Z,0
2016-02-04T00:40:49.615Z,0
2016-02-04T00:41:56.947Z,0
2016-02-04T00:42:49.653Z,0
2016-02-04T00:43:49.656Z,0
2016-02-04T00:44:49.612Z,0
2016-02-04T00:45:49.630Z,0
2016-02-04T00:46:49.696Z,0
2016-02-04T00:47:49.633Z,0
2016-02-04T00:48:49.625Z,0
2016-02-04T00:49:49.627Z,0
2016-02-04T00:50:49.630Z,0
2016-02-04T00:51:49.601Z,0
2016-02-04T00:52:49.574Z,0
2016-02-04T00:53:49.576Z,0
2016-02-04T00:54:49.579Z,0
2016-02-04T00:55:49.613Z,0
2016-02-04T00:56:54.148Z,0
2016-02-04T00:57:49.885Z,0
2016-02-04T00:58:49.576Z,0
2016-02-04T00:59:49.578Z,0
2016-02-04T01:00:49.565Z,0
2016-02-04T01:01:49.630Z,0
2016-02-04T01:02:56.461Z,0
2016-02-04T01:03:49.543Z,0
2016-02-04T01:04:49.593Z,0
2016-02-04T01:05:49.564Z,0
2016-02-04T01:06:56.677Z,0
2016-02-04T01:07:49.522Z,0
2016-02-04T01:08:56.541Z,0
2016-02-04T01:09:49.545Z,0
2016-02-04T01:10:49.531Z,0
2016-02-04T01:11:56.613Z,0
2016-02-04T01:12:49.523Z,0
2016-02-04T01:13:49.540Z,0
2016-02-04T01:14:49.536Z,0
2016-02-04T01:15:49.512Z,0
2016-02-04T01:16:49.318Z,0
2016-02-04T01:17:49.464Z,0
2016-02-04T01:18:56.628Z,0
2016-02-04T01:19:49.453Z,0
2016-02-04T01:20:49.452Z,0
2016-02-04T01:21:49.467Z,0
2016-02-04T01:22:49.449Z,0
2016-02-04T01:23:49.436Z,0
2016-02-04T01:24:49.436Z,0
2016-02-04T01:25:49.405Z,0
2016-02-04T01:26:54.031Z,0
2016-02-04T01:27:49.408Z,0
2016-02-04T01:28:56.675Z,0
2016-02-04T01:29:49.427Z,0
2016-02-04T01:30:49.398Z,0
2016-02-04T01:32:03.212Z,0
2016-02-04T01:32:49.403Z,0
2016-02-04T01:33:49.374Z,0
2016-02-04T01:34:49.376Z,0
2016-02-04T01:35:53.959Z,0
2016-02-04T01:36:49.367Z,0
2016-02-04T01:37:49.354Z,0
2016-02-04T01:38:49.356Z,0
2016-02-04T01:39:56.233Z,0
2016-02-04T01:40:56.127Z,0
2016-02-04T01:41:53.692Z,0
2016-02-04T01:42:49.367Z,0
2016-02-04T01:43:49.369Z,0
2016-02-04T01:44:49.341Z,0
2016-02-04T01:45:56.075Z,0
2016-02-04T01:46:56.123Z,0
2016-02-04T01:47:49.345Z,0
2016-02-04T01:48:49.317Z,0
2016-02-04T01:49:49.336Z,0
2016-02-04T01:50:49.323Z,0
2016-02-04T01:51:49.342Z,0
2016-02-04T01:52:49.344Z,0
2016-02-04T01:53:49.315Z,0
2016-02-04T01:54:49.302Z,0
2016-02-04T01:55:49.337Z,0
2016-02-04T01:56:49.323Z,0
2016-02-04T01:57:49.358Z,0
2016-02-04T01:58:49.313Z,0
2016-02-04T01:59:49.301Z,0
2016-02-04T02:00:49.303Z,0
2016-02-04T02:01:49.322Z,0
2016-02-04T02:02:49.292Z,0
2016-02-04T02:03:49.280Z,0
2016-02-04T02:04:53.845Z,0
2016-02-04T02:05:49.286Z,0
2016-02-04T02:06:49.303Z,0
2016-02-04T02:07:56.432Z,0
2016-02-04T02:08:49.263Z,0
2016-02-04T02:09:49.266Z,0
2016-02-04T02:10:49.269Z,0
2016-02-04T02:11:49.303Z,0
2016-02-04T02:12:49.273Z,0
2016-02-04T02:13:49.261Z,0
2016-02-04T02:14:49.264Z,0
2016-02-04T02:15:49.281Z,0
2016-02-04T02:16:49.259Z,0
2016-02-04T02:17:53.233Z,0
2016-02-04T02:18:49.250Z,0
2016-02-04T02:19:49.269Z,0
2016-02-04T02:20:49.271Z,0
2016-02-04T02:21:49.227Z,0
2016-02-04T02:22:49.246Z,0
2016-02-04T02:23:49.248Z,0
2016-02-04T02:24:49.251Z,0
2016-02-04T02:25:49.254Z,0
2016-02-04T02:26:49.225Z,0
2016-02-04T02:27:49.228Z,0
2016-02-04T02:28:55.621Z,0
2016-02-04T02:29:49.234Z,0
2016-02-04T02:30:49.237Z,0
2016-02-04T02:31:49.255Z,0
2016-02-04T02:32:53.382Z,0
2016-02-04T02:33:49.198Z,0
2016-02-04T02:34:49.200Z,0
2016-02-04T02:35:55.735Z,0
2016-02-04T02:36:49.188Z,0
2016-02-04T02:37:49.190Z,0
2016-02-04T02:38:55.615Z,0
2016-02-04T02:39:49.196Z,0
2016-02-04T02:40:55.669Z,0
2016-02-04T02:41:55.656Z,0
2016-02-04T02:42:49.189Z,0
2016-02-04T02:43:49.192Z,0
2016-02-04T02:44:49.241Z,0
2016-02-04T02:45:49.166Z,0
2016-02-04T02:46:49.168Z,0
2016-02-04T02:47:49.190Z,0
2016-02-04T02:48:53.411Z,0
2016-02-04T02:49:49.179Z,0
2016-02-04T02:50:55.791Z,0
2016-02-04T02:51:49.188Z,0
2016-02-04T02:52:53.411Z,0
2016-02-04T02:53:49.146Z,0
2016-02-04T02:54:49.181Z,0
2016-02-04T02:55:49.183Z,0
2016-02-04T02:56:49.171Z,0
2016-02-04T02:57:49.143Z,0
2016-02-04T02:58:49.146Z,0
2016-02-04T02:59:49.165Z,0
2016-02-04T03:00:49.167Z,0
2016-02-04T03:01:49.170Z,0
2016-02-04T03:02:49.126Z,0
2016-02-04T03:03:48.660Z,0
2016-02-04T03:04:49.163Z,0
2016-02-04T03:05:56.041Z,0
2016-02-04T03:06:49.122Z,0
2016-02-04T03:07:53.639Z,0
2016-02-04T03:08:49.141Z,0
2016-02-04T03:09:49.129Z,0
2016-02-04T03:10:49.164Z,0
2016-02-04T03:11:49.119Z,0
2016-02-04T03:12:56.169Z,0
2016-02-04T03:13:49.093Z,0
2016-02-04T03:14:49.127Z,0
2016-02-04T03:15:49.114Z,0
2016-02-04T03:16:49.102Z,0
2016-02-04T03:17:53.386Z,0
2016-02-04T03:18:49.095Z,0
2016-02-04T03:19:55.896Z,0
2016-02-04T03:20:49.102Z,0
2016-02-04T03:21:55.886Z,0
2016-02-04T03:23:02.749Z,0
2016-02-04T03:23:49.065Z,0
2016-02-04T03:24:49.068Z,0
2016-02-04T03:25:49.087Z,0
2016-02-04T03:26:55.496Z,0
2016-02-04T03:27:49.076Z,0
2016-02-04T03:28:49.079Z,0
2016-02-04T03:29:49.065Z,0
2016-02-04T03:30:49.084Z,0
2016-02-04T03:31:53.276Z,0
2016-02-04T03:32:53.247Z,0
2016-02-04T03:33:49.047Z,0
2016-02-04T03:34:49.080Z,0
2016-02-04T03:35:49.051Z,0
2016-02-04T03:36:49.059Z,0
2016-02-04T03:37:49.062Z,0
2016-02-04T03:38:55.674Z,0
2016-02-04T03:39:49.052Z,0
2016-02-04T03:40:49.055Z,0
2016-02-04T03:42:02.464Z,0
2016-02-04T03:42:49.030Z,0
2016-02-04T03:43:49.032Z,0
2016-02-04T03:44:49.020Z,0
2016-02-04T03:45:49.069Z,0
2016-02-04T03:46:49.040Z,0
2016-02-04T03:47:49.020Z,0
2016-02-04T03:48:49.023Z,0
2016-02-04T03:49:49.026Z,0
2016-02-04T03:50:49.013Z,0
2016-02-04T03:52:00.329Z,0
2016-02-04T03:52:49.003Z,0
2016-02-04T03:53:49.005Z,0
2016-02-04T03:54:49.008Z,0
2016-02-04T03:55:49.013Z,0
2016-02-04T03:56:49.015Z,0
2016-02-04T03:57:49.003Z,0
2016-02-04T03:58:56.100Z,0
2016-02-04T03:59:48.977Z,0
2016-02-04T04:01:03.198Z,0
2016-02-04T04:01:56.029Z,0
2016-02-04T04:02:49.001Z,0
2016-02-04T04:03:48.989Z,0
2016-02-04T04:04:56.117Z,0
2016-02-04T04:05:48.980Z,0
2016-02-04T04:06:48.983Z,0
2016-02-04T04:07:49.017Z,0
2016-02-04T04:08:48.974Z,0
2016-02-04T04:09:48.961Z,0
2016-02-04T04:10:48.948Z,0
2016-02-04T04:11:56.220Z,0
2016-02-04T04:12:56.222Z,0
2016-02-04T04:13:48.957Z,0
2016-02-04T04:14:48.960Z,0
2016-02-04T04:15:48.946Z,0
2016-02-04T04:16:49.242Z,0
2016-02-04T04:17:49.167Z,0
2016-02-04T04:18:49.233Z,0
2016-02-04T04:19:54.438Z,0
2016-02-04T04:20:56.113Z,0
2016-02-04T04:21:49.209Z,0
2016-02-04T04:22:49.215Z,0
2016-02-04T04:23:53.655Z,0
2016-02-04T04:24:49.205Z,0
2016-02-04T04:25:49.176Z,0
2016-02-04T04:26:49.022Z,0
2016-02-04T04:27:56.370Z,0
2016-02-04T04:28:48.920Z,0
2016-02-04T04:30:01.140Z,0
2016-02-04T04:30:48.956Z,0
2016-02-04T04:31:56.350Z,0
2016-02-04T04:32:48.899Z,0
2016-02-04T04:33:48.918Z,0
2016-02-04T04:34:48.905Z,0
2016-02-04T04:35:48.894Z,0
2016-02-04T04:36:54.006Z,0
2016-02-04T04:37:48.899Z,0
2016-02-04T04:38:48.886Z,0
2016-02-04T04:39:48.889Z,0
2016-02-04T04:40:48.907Z,0
2016-02-04T04:41:48.911Z,0
2016-02-04T04:43:00.585Z,0
2016-02-04T04:43:53.478Z,0
2016-02-04T04:44:48.888Z,0
2016-02-04T04:45:48.891Z,0
2016-02-04T04:46:48.896Z,0
2016-02-04T04:47:48.868Z,0
2016-02-04T04:48:53.542Z,0
2016-02-04T04:49:48.859Z,0
2016-02-04T04:50:55.643Z,0
2016-02-04T04:51:48.895Z,0
2016-02-04T04:52:48.851Z,0
2016-02-04T04:53:48.838Z,0
2016-02-04T04:54:48.840Z,0
2016-02-04T04:55:48.859Z,0
2016-02-04T04:56:48.877Z,0
2016-02-04T04:57:55.739Z,0
2016-02-04T04:58:48.836Z,0
2016-02-04T04:59:48.839Z,0
2016-02-04T05:00:48.842Z,0
2016-02-04T05:01:48.845Z,0
2016-02-04T05:02:48.847Z,0
2016-02-04T05:03:55.897Z,0
2016-02-04T05:04:48.821Z,0
2016-02-04T05:05:48.840Z,0
2016-02-04T05:06:53.986Z,0
2016-02-04T05:07:48.848Z,0
2016-02-04T05:08:48.820Z,0
2016-02-04T05:09:48.822Z,0
2016-02-04T05:10:48.809Z,0
2016-02-04T05:11:55.406Z,0
2016-02-04T05:12:48.845Z,0
2016-02-04T05:13:48.802Z,0
2016-02-04T05:14:55.445Z,0
2016-02-04T05:15:55.479Z,0
2016-02-04T05:16:48.811Z,0
2016-02-04T05:17:48.814Z,0
2016-02-04T05:19:02.242Z,0
2016-02-04T05:19:48.807Z,0
2016-02-04T05:20:48.810Z,0
2016-02-04T05:21:48.641Z,0
2016-02-04T05:22:48.800Z,0
2016-02-04T05:23:48.788Z,0
2016-02-04T05:24:48.776Z,0
2016-02-04T05:25:48.778Z,0
2016-02-04T05:26:48.796Z,0
2016-02-04T05:27:48.784Z,0
2016-02-04T05:28:48.755Z,0
2016-02-04T05:29:48.758Z,0
2016-02-04T05:30:48.775Z,0
2016-02-04T05:31:59.842Z,0
2016-02-04T05:32:54.563Z,0
2016-02-04T05:33:48.798Z,0
2016-02-04T05:34:48.754Z,0
2016-02-04T05:35:48.741Z,0
2016-02-04T05:36:48.759Z,0
2016-02-04T05:37:48.762Z,0
2016-02-04T05:38:48.738Z,0
2016-02-04T05:39:48.741Z,0
2016-02-04T05:40:48.744Z,0
2016-02-04T05:41:54.496Z,0
2016-02-04T05:42:48.749Z,0
2016-02-04T05:43:48.720Z,0
2016-02-04T05:44:48.722Z,0
2016-02-04T05:45:48.725Z,0
2016-02-04T05:46:48.744Z,0
2016-02-04T05:47:52.355Z,0
2016-02-04T05:48:54.577Z,0
2016-02-04T05:49:48.705Z,0
2016-02-04T05:50:54.630Z,0
2016-02-04T05:51:54.698Z,0
2016-02-04T05:52:54.639Z,0
2016-02-04T05:53:48.703Z,0
2016-02-04T05:54:54.660Z,0
2016-02-04T05:55:48.709Z,0
2016-02-04T05:56:48.728Z,0
2016-02-04T05:57:48.700Z,0
2016-02-04T05:58:48.703Z,0
2016-02-04T05:59:48.690Z,0
2016-02-04T06:00:48.692Z,0
2016-02-04T06:01:48.695Z,0
2016-02-04T06:02:48.667Z,0
2016-02-04T06:03:48.720Z,0
2016-02-04T06:04:48.675Z,0
2016-02-04T06:05:48.662Z,0
2016-02-04T06:06:48.664Z,0
2016-02-04T06:07:48.667Z,0
2016-02-04T06:08:48.686Z,0
2016-02-04T06:09:48.642Z,0
2016-02-04T06:10:48.647Z,0
2016-02-04T06:11:48.650Z,0
2016-02-04T06:12:54.996Z,0
2016-02-04T06:14:01.359Z,0
2016-02-04T06:14:48.642Z,0
2016-02-04T06:15:48.632Z,0
2016-02-04T06:16:48.634Z,0
2016-02-04T06:17:52.872Z,4
2016-02-04T06:18:48.656Z,4
2016-02-04T06:19:48.612Z,4
2016-02-04T06:20:48.631Z,4
2016-02-04T06:21:48.633Z,0
2016-02-04T06:22:48.653Z,4
2016-02-04T06:23:48.624Z,4
2016-02-04T06:24:48.612Z,4
2016-02-04T06:25:48.630Z,4
2016-02-04T06:26:48.601Z,4
2016-02-04T06:27:48.604Z,4
2016-02-04T06:28:55.404Z,8
2016-02-04T06:29:48.610Z,8
2016-02-04T06:30:48.582Z,8
2016-02-04T06:31:48.600Z,12
2016-02-04T06:32:48.602Z,12
2016-02-04T06:33:48.605Z,16
2016-02-04T06:34:55.358Z,20
2016-02-04T06:35:48.565Z,20
2016-02-04T06:37:02.522Z,28
2016-02-04T06:37:48.589Z,28
2016-02-04T06:38:48.561Z,36
2016-02-04T06:39:52.282Z,36
2016-02-04T06:40:52.316Z,44
2016-02-04T06:41:48.569Z,52
2016-02-04T06:42:48.587Z,60
2016-02-04T06:43:54.637Z,68
2016-02-04T06:44:48.547Z,76
2016-02-04T06:45:54.549Z,88
2016-02-04T06:46:48.552Z,100
2016-02-04T06:47:48.555Z,108
2016-02-04T06:48:48.525Z,112
2016-02-04T06:50:00.794Z,120
2016-02-04T06:50:48.531Z,128
2016-02-04T06:51:54.691Z,144
2016-02-04T06:52:48.527Z,156
2016-02-04T06:53:48.513Z,172
2016-02-04T06:54:48.517Z,188
2016-02-04T06:55:48.503Z,204
2016-02-04T06:56:48.552Z,224
2016-02-04T06:57:48.490Z,244
2016-02-04T06:58:48.493Z,268
2016-02-04T06:59:48.480Z,296
2016-02-04T07:00:52.892Z,316
2016-02-04T07:01:48.502Z,340
2016-02-04T07:02:52.555Z,356
2016-02-04T07:03:48.464Z,368
2016-02-04T07:04:48.467Z,376
2016-02-04T07:05:48.470Z,392
2016-02-04T07:06:48.487Z,404
2016-02-04T07:07:54.975Z,416
2016-02-04T07:08:54.946Z,432
2016-02-04T07:09:48.448Z,444
2016-02-04T07:10:48.436Z,464
2016-02-04T07:11:48.439Z,484
2016-02-04T07:12:55.129Z,496
2016-02-04T07:13:48.444Z,500
2016-02-04T07:14:48.435Z,520
2016-02-04T07:15:48.438Z,544
2016-02-04T07:16:48.456Z,548
2016-02-04T07:17:48.443Z,540
2016-02-04T07:18:48.430Z,568
2016-02-04T07:19:48.433Z,604
2016-02-04T07:20:48.424Z,600
2016-02-04T07:21:48.401Z,552
2016-02-04T07:22:48.403Z,516
2016-02-04T07:23:48.405Z,504
2016-02-04T07:24:48.394Z,492
2016-02-04T07:25:48.411Z,548
2016-02-04T07:26:48.399Z,564
2016-02-04T07:27:48.405Z,584
2016-02-04T07:28:54.891Z,596
2016-02-04T07:29:48.410Z,632
2016-02-04T07:30:52.568Z,664
2016-02-04T07:31:48.384Z,688
2016-02-04T07:32:48.389Z,708
2016-02-04T07:33:55.017Z,708
2016-02-04T07:34:48.365Z,680
2016-02-04T07:35:48.368Z,716
2016-02-04T07:36:48.371Z,760
2016-02-04T07:37:48.389Z,836
2016-02-04T07:38:48.407Z,924
2016-02-04T07:39:48.350Z,1004
2016-02-04T07:40:52.696Z,1072
2016-02-04T07:41:48.358Z,1124
2016-02-04T07:42:48.360Z,1152
2016-02-04T07:43:48.377Z,1168
2016-02-04T07:44:48.349Z,1180
2016-02-04T07:45:48.352Z,1192
2016-02-04T07:46:48.325Z,1188
2016-02-04T07:47:48.343Z,1176
2016-02-04T07:48:48.361Z,1192
2016-02-04T07:49:48.333Z,1232
2016-02-04T07:50:48.320Z,1280
2016-02-04T07:51:48.324Z,1332
2016-02-04T07:52:48.330Z,1400
2016-02-04T07:53:56.849Z,1508
2016-02-04T07:54:48.306Z,1628
2016-02-04T07:55:48.340Z,1772
2016-02-04T07:56:48.311Z,1932
2016-02-04T07:57:48.329Z,2108
2016-02-04T07:58:48.348Z,2276
2016-02-04T07:59:47.558Z,2452
2016-02-04T08:00:48.295Z,2628
2016-02-04T08:01:48.314Z,2808
2016-02-04T08:02:48.300Z,2992
2016-02-04T08:03:48.303Z,3172
2016-02-04T08:04:48.294Z,3332
2016-02-04T08:05:53.812Z,3532
2016-02-04T08:06:48.319Z,3736
2016-02-04T08:07:53.838Z,3904
2016-02-04T08:08:48.309Z,4152
2016-02-04T08:09:48.280Z,4348
2016-02-04T08:10:48.268Z,4428
2016-02-04T08:11:53.787Z,4376
2016-02-04T08:12:53.836Z,4404
2016-02-04T08:13:48.275Z,4396
2016-02-04T08:14:51.796Z,4468
2016-02-04T08:15:57.361Z,4500
2016-02-04T08:16:54.004Z,4580
2016-02-04T08:17:48.254Z,4600
2016-02-04T08:18:48.275Z,4624
2016-02-04T08:19:48.247Z,4664
2016-02-04T08:20:53.925Z,4672
2016-02-04T08:21:48.268Z,4620
2016-02-04T08:22:48.255Z,4648
2016-02-04T08:23:54.245Z,4628
2016-02-04T08:24:48.245Z,4684
2016-02-04T08:25:48.248Z,4660
2016-02-04T08:26:48.110Z,4688
2016-02-04T08:27:48.238Z,4792
2016-02-04T08:28:54.178Z,4788
2016-02-04T08:29:48.289Z,4752
2016-02-04T08:30:48.246Z,4744
2016-02-04T08:31:48.248Z,4776
2016-02-04T08:32:48.266Z,4744
2016-02-04T08:33:48.254Z,4736
2016-02-04T08:34:48.257Z,4776
2016-02-04T08:35:48.259Z,4652
2016-02-04T08:36:48.262Z,4560
2016-02-04T08:37:48.249Z,4392
2016-02-04T08:38:49.830Z,4300
2016-02-04T08:39:48.271Z,4132
2016-02-04T08:40:48.274Z,4200
2016-02-04T08:41:48.276Z,4196
2016-02-04T08:42:48.263Z,4084
2016-02-04T08:43:48.271Z,4004
2016-02-04T08:44:48.321Z,3940
2016-02-04T08:45:48.262Z,3860
2016-02-04T08:46:48.264Z,3756
2016-02-04T08:47:48.251Z,3732
2016-02-04T08:48:48.270Z,3652
2016-02-04T08:49:48.256Z,3552
2016-02-04T08:50:48.574Z,3508
2016-02-04T08:51:48.260Z,3492
2016-02-04T08:52:48.263Z,3512
2016-02-04T08:53:48.296Z,3504
2016-02-04T08:54:48.252Z,3496
2016-02-04T08:55:48.270Z,3440
2016-02-04T08:56:48.258Z,3320
2016-02-04T08:57:48.276Z,3224
2016-02-04T08:58:48.279Z,3184
2016-02-04T08:59:48.281Z,3168
2016-02-04T09:00:48.346Z,3180
2016-02-04T09:01:48.271Z,3056
2016-02-04T09:02:48.273Z,2900
2016-02-04T09:03:48.277Z,2948
2016-02-04T09:04:48.264Z,3088
2016-02-04T09:05:48.298Z,3200
2016-02-04T09:06:49.723Z,3324
2016-02-04T09:07:49.069Z,3472
2016-02-04T09:08:48.307Z,3552
2016-02-04T09:09:48.262Z,3612
2016-02-04T09:10:48.266Z,3656
2016-02-04T09:11:48.300Z,3724
2016-02-04T09:12:48.693Z,3768
2016-02-04T09:13:48.730Z,3776
2016-02-04T09:14:48.264Z,3724
2016-02-04T09:15:48.267Z,3720
2016-02-04T09:16:48.254Z,3736
2016-02-04T09:17:48.257Z,3728
2016-02-04T09:18:48.245Z,3664
2016-02-04T09:19:48.255Z,3652
2016-02-04T09:20:48.838Z,3672
2016-02-04T09:21:48.996Z,3744
2016-02-04T09:22:48.219Z,3868
2016-02-04T09:23:48.254Z,4044
2016-02-04T09:24:48.240Z,4212
2016-02-04T09:25:48.243Z,4304
2016-02-04T09:26:48.245Z,4432
2016-02-04T09:27:48.248Z,4508
2016-02-04T09:28:48.251Z,4508
2016-02-04T09:29:49.691Z,4492
2016-02-04T09:30:50.398Z,4516
2016-02-04T09:31:48.276Z,4504
2016-02-04T09:32:48.247Z,4412
2016-02-04T09:33:49.782Z,4264
2016-02-04T09:34:48.254Z,4132
2016-02-04T09:35:48.084Z,4052
2016-02-04T09:36:48.243Z,3996
2016-02-04T09:37:48.245Z,3944
2016-02-04T09:38:48.279Z,3920
2016-02-04T09:39:48.251Z,3912
2016-02-04T09:40:48.237Z,3944
2016-02-04T09:41:48.272Z,4024
2016-02-04T09:42:48.243Z,4180
2016-02-04T09:43:48.261Z,4376
2016-02-04T09:44:48.514Z,4604
2016-02-04T09:45:48.314Z,4872
2016-02-04T09:46:48.239Z,5124
2016-02-04T09:47:48.101Z,5336
2016-02-04T09:48:48.245Z,5508
2016-02-04T09:49:48.637Z,5644
2016-02-04T09:50:48.220Z,5724
2016-02-04T09:51:48.285Z,5708
2016-02-04T09:52:48.460Z,5708
2016-02-04T09:53:48.712Z,5848
2016-02-04T09:54:48.234Z,5904
2016-02-04T09:55:48.268Z,5844
2016-02-04T09:56:48.240Z,5908
2016-02-04T09:57:48.274Z,5980
2016-02-04T09:58:48.215Z,5992
2016-02-04T09:59:48.248Z,6004
2016-02-04T10:00:48.314Z,5960
2016-02-04T10:01:48.223Z,5916
2016-02-04T10:02:48.213Z,5960
2016-02-04T10:03:48.215Z,5896
2016-02-04T10:04:48.218Z,5688
2016-02-04T10:05:48.486Z,5532
2016-02-04T10:06:48.365Z,5652
2016-02-04T10:07:48.243Z,5828
2016-02-04T10:08:48.215Z,6020
2016-02-04T10:09:48.232Z,6148
2016-02-04T10:10:48.220Z,6176
2016-02-04T10:11:48.581Z,5868
2016-02-04T10:12:48.569Z,5516
2016-02-04T10:13:48.915Z,4976
2016-02-04T10:14:48.246Z,4524
2016-02-04T10:15:48.217Z,4396
2016-02-04T10:16:48.220Z,4264
2016-02-04T10:17:48.223Z,4224
2016-02-04T10:18:48.709Z,4324
2016-02-04T10:19:48.683Z,4676
2016-02-04T10:20:48.214Z,4820
2016-02-04T10:21:48.219Z,4924
2016-02-04T10:22:48.397Z,5048
2016-02-04T10:23:48.201Z,4964
2016-02-04T10:24:49.036Z,4772
2016-02-04T10:25:48.338Z,4720
2016-02-04T10:26:48.149Z,4752
2016-02-04T10:27:48.991Z,4428
2016-02-04T10:28:48.364Z,3932
2016-02-04T10:29:48.145Z,3696
2016-02-04T10:30:48.127Z,3656
2016-02-04T10:31:48.112Z,4100
2016-02-04T10:32:48.613Z,4292
2016-02-04T10:33:48.130Z,4304
2016-02-04T10:34:48.116Z,4404
2016-02-04T10:35:48.133Z,4404
2016-02-04T10:36:48.666Z,4252
2016-02-04T10:37:48.138Z,4396
2016-02-04T10:38:48.109Z,4568
2016-02-04T10:39:48.111Z,4568
2016-02-04T10:40:48.113Z,4520
2016-02-04T10:41:48.116Z,4656
2016-02-04T10:42:48.118Z,4852
2016-02-04T10:43:48.105Z,4888
2016-02-04T10:44:48.126Z,4964
2016-02-04T10:45:48.097Z,5040
2016-02-04T10:46:48.116Z,4988
2016-02-04T10:47:48.102Z,4916
2016-02-04T10:48:48.121Z,4972
2016-02-04T10:49:48.733Z,4888
2016-02-04T10:50:48.111Z,4732
2016-02-04T10:51:48.099Z,4560
2016-02-04T10:52:48.102Z,4392
2016-02-04T10:53:48.135Z,4308
2016-02-04T10:54:48.108Z,4304
2016-02-04T10:55:48.111Z,4428
2016-02-04T10:56:48.098Z,4756
2016-02-04T10:57:48.741Z,5060
2016-02-04T10:58:48.103Z,5112
2016-02-04T10:59:48.857Z,4900
2016-02-04T11:00:48.094Z,4624
2016-02-04T11:01:48.096Z,4328
2016-02-04T11:02:48.146Z,4164
2016-02-04T11:03:48.102Z,4072
2016-02-04T11:04:48.902Z,4120
2016-02-04T11:05:48.107Z,3980
2016-02-04T11:06:48.130Z,3672
2016-02-04T11:07:48.102Z,3860
2016-02-04T11:08:48.119Z,3968
2016-02-04T11:09:48.107Z,3988
2016-02-04T11:10:48.907Z,4116
2016-02-04T11:11:48.894Z,4232
2016-02-04T11:12:48.100Z,4296
2016-02-04T11:13:48.103Z,4332
2016-02-04T11:14:48.903Z,4376
2016-02-04T11:15:48.109Z,4396
2016-02-04T11:16:49.346Z,4372
2016-02-04T11:17:48.114Z,4320
2016-02-04T11:18:48.523Z,4212
2016-02-04T11:19:48.090Z,4076
2016-02-04T11:20:48.530Z,3944
2016-02-04T11:21:48.110Z,3820
2016-02-04T11:22:48.113Z,3696
2016-02-04T11:23:48.100Z,3652
2016-02-04T11:24:48.103Z,3612
2016-02-04T11:25:48.105Z,3548
2016-02-04T11:26:48.109Z,3484
2016-02-04T11:27:48.127Z,3468
2016-02-04T11:28:48.098Z,3456
2016-02-04T11:29:48.117Z,3540
2016-02-04T11:30:48.104Z,3504
2016-02-04T11:31:48.112Z,3296
2016-02-04T11:32:48.099Z,3176
2016-02-04T11:33:48.133Z,3100
2016-02-04T11:34:48.104Z,2964
2016-02-04T11:35:48.123Z,2936
2016-02-04T11:36:48.110Z,3048
2016-02-04T11:37:48.128Z,3004
2016-02-04T11:38:48.101Z,2780
2016-02-04T11:39:48.134Z,2672
2016-02-04T11:40:48.090Z,2616
2016-02-04T11:41:48.124Z,2644
2016-02-04T11:42:48.095Z,2704
2016-02-04T11:43:48.087Z,2716
2016-02-04T11:44:48.136Z,2684
2016-02-04T11:45:48.092Z,2720
2016-02-04T11:46:48.127Z,2692
2016-02-04T11:47:48.113Z,2824
2016-02-04T11:48:48.132Z,2960
2016-02-04T11:49:48.118Z,3236
2016-02-04T11:50:48.105Z,3444
2016-02-04T11:51:48.127Z,3564
2016-02-04T11:52:48.098Z,3572
2016-02-04T11:53:48.116Z,3644
2016-02-04T11:54:48.087Z,3764
2016-02-04T11:55:48.109Z,3652
2016-02-04T11:56:48.157Z,3492
2016-02-04T11:57:48.129Z,3428
2016-02-04T11:58:48.101Z,3444
2016-02-04T11:59:48.134Z,3176
2016-02-04T12:00:48.153Z,2888
2016-02-04T12:01:48.109Z,2808
2016-02-04T12:02:48.128Z,3180
2016-02-04T12:03:48.115Z,3420
2016-02-04T12:04:48.102Z,3416
2016-02-04T12:05:48.137Z,3644
2016-02-04T12:06:48.108Z,3788
2016-02-04T12:07:48.095Z,3752
2016-02-04T12:08:48.098Z,3556
2016-02-04T12:09:48.115Z,3388
2016-02-04T12:10:48.087Z,3340
2016-02-04T12:11:48.074Z,3396
2016-02-04T12:12:48.140Z,3492
2016-02-04T12:13:48.096Z,3656
2016-02-04T12:14:48.067Z,3660
2016-02-04T12:15:48.071Z,3496
2016-02-04T12:16:48.073Z,3252
2016-02-04T12:17:48.060Z,3072
2016-02-04T12:18:48.064Z,2960
2016-02-04T12:19:48.051Z,3024
2016-02-04T12:20:48.054Z,2976
2016-02-04T12:21:48.056Z,2884
2016-02-04T12:22:48.121Z,2780
2016-02-04T12:23:48.063Z,2652
2016-02-04T12:24:48.051Z,2496
2016-02-04T12:25:48.101Z,2380
2016-02-04T12:26:48.087Z,2328
2016-02-04T12:27:48.074Z,2396
2016-02-04T12:28:48.092Z,2388
2016-02-04T12:29:48.033Z,2252
2016-02-04T12:30:48.052Z,2044
2016-02-04T12:31:48.039Z,1812
2016-02-04T12:32:48.057Z,1620
2016-02-04T12:33:48.091Z,1528
2016-02-04T12:34:48.063Z,1560
2016-02-04T12:35:48.099Z,1732
2016-02-04T12:36:48.055Z,1976
2016-02-04T12:37:48.058Z,2232
2016-02-04T12:38:48.045Z,2452
2016-02-04T12:39:48.031Z,2592
2016-02-04T12:40:48.069Z,2580
2016-02-04T12:41:47.291Z,2572
2016-02-04T12:42:48.043Z,2528
2016-02-04T12:43:48.039Z,2500
2016-02-04T12:44:48.027Z,2568
2016-02-04T12:45:48.014Z,2740
2016-02-04T12:46:48.017Z,2976
2016-02-04T12:47:48.036Z,3096
2016-02-04T12:48:48.053Z,2984
2016-02-04T12:49:48.056Z,2776
2016-02-04T12:50:48.012Z,2588
2016-02-04T12:51:48.047Z,2500
2016-02-04T12:52:48.018Z,2448
2016-02-04T12:53:48.021Z,2424
2016-02-04T12:54:48.008Z,2468
2016-02-04T12:55:48.050Z,2496
2016-02-04T12:56:48.022Z,2524
2016-02-04T12:57:48.008Z,2588
2016-02-04T12:58:48.027Z,2596
2016-02-04T12:59:48.044Z,2508
2016-02-04T13:00:48.000Z,2460
2016-02-04T13:01:48.002Z,2428
2016-02-04T13:02:48.052Z,2404
2016-02-04T13:03:48.008Z,2336
2016-02-04T13:04:48.010Z,2296
2016-02-04T13:05:48.013Z,2236
2016-02-04T13:06:48.048Z,2224
2016-02-04T13:07:47.989Z,2096
2016-02-04T13:08:48.023Z,2040
2016-02-04T13:09:47.994Z,2004
2016-02-04T13:10:47.997Z,1980
2016-02-04T13:11:48.000Z,1976
2016-02-04T13:12:49.815Z,1984
2016-02-04T13:13:48.036Z,1988
2016-02-04T13:14:47.992Z,2000
2016-02-04T13:15:48.011Z,1988
2016-02-04T13:16:47.999Z,2072
2016-02-04T13:17:47.986Z,2148
2016-02-04T13:18:47.972Z,2180
2016-02-04T13:19:48.006Z,2068
2016-02-04T13:20:47.966Z,1980
2016-02-04T13:21:47.968Z,1984
2016-02-04T13:22:47.972Z,2032
2016-02-04T13:23:47.975Z,2028
2016-02-04T13:24:47.962Z,1984
2016-02-04T13:25:48.073Z,1932
2016-02-04T13:26:48.011Z,1888
2016-02-04T13:27:47.999Z,1800
2016-02-04T13:28:47.971Z,1660
2016-02-04T13:29:47.974Z,1608
2016-02-04T13:30:47.961Z,1624
2016-02-04T13:31:47.994Z,1664
2016-02-04T13:32:47.935Z,1604
2016-02-04T13:33:47.954Z,1464
2016-02-04T13:34:47.988Z,1360
2016-02-04T13:35:47.975Z,1344
2016-02-04T13:36:47.963Z,1392
2016-02-04T13:37:47.996Z,1460
2016-02-04T13:38:47.952Z,1572
2016-02-04T13:39:47.955Z,1660
2016-02-04T13:40:47.992Z,1696
2016-02-04T13:41:47.932Z,1680
2016-02-04T13:42:47.935Z,1708
2016-02-04T13:43:47.938Z,1760
2016-02-04T13:44:47.988Z,1864
2016-02-04T13:45:47.974Z,1892
2016-02-04T13:46:47.977Z,1908
2016-02-04T13:47:47.964Z,1900
2016-02-04T13:48:47.921Z,1840
2016-02-04T13:49:47.955Z,1816
2016-02-04T13:50:47.973Z,1712
2016-02-04T13:51:47.944Z,1656
2016-02-04T13:52:47.904Z,1648
2016-02-04T13:53:47.937Z,1700
2016-02-04T13:54:47.956Z,1692
2016-02-04T13:55:47.964Z,1684
2016-02-04T13:56:47.936Z,1632
2016-02-04T13:57:47.923Z,1624
2016-02-04T13:58:47.909Z,1648
2016-02-04T13:59:47.928Z,1680
2016-02-04T14:00:47.900Z,1672